sensor_id;sensor_type;location;lat;lon;timestamp;temperature;humidity
54832;DHT22;40730;53.068;6.572;2024-01-30T00:01:13;6.20;99.90
54832;DHT22;40730;53.068;6.572;2024-01-30T00:03:38;6.20;99.90
54832;DHT22;40730;53.068;6.572;2024-01-30T00:06:04;6.20;99.90
54832;DHT22;40730;53.068;6.572;2024-01-30T00:08:30;6.20;99.90
54832;DHT22;40730;53.068;6.572;2024-01-30T00:10:55;6.20;99.90
54832;DHT22;40730;53.068;6.572;2024-01-30T00:13:21;6.20;99.90
54832;DHT22;40730;53.068;6.572;2024-01-30T00:15:46;6.20;99.90
54832;DHT22;40730;53.068;6.572;2024-01-30T00:18:12;6.30;99.90
54832;DHT22;40730;53.068;6.572;2024-01-30T00:20:38;6.20;99.90
54832;DHT22;40730;53.068;6.572;2024-01-30T00:23:03;6.30;99.90
54832;DHT22;40730;53.068;6.572;2024-01-30T00:25:30;6.30;99.90
54832;DHT22;40730;53.068;6.572;2024-01-30T00:27:55;6.30;99.90
54832;DHT22;40730;53.068;6.572;2024-01-30T00:30:21;6.30;99.90
54832;DHT22;40730;53.068;6.572;2024-01-30T00:32:47;6.30;99.90
54832;DHT22;40730;53.068;6.572;2024-01-30T00:35:12;6.20;99.90
54832;DHT22;40730;53.068;6.572;2024-01-30T00:37:38;6.20;99.90
54832;DHT22;40730;53.068;6.572;2024-01-30T00:40:04;6.20;99.90
54832;DHT22;40730;53.068;6.572;2024-01-30T00:42:31;6.30;99.90
54832;DHT22;40730;53.068;6.572;2024-01-30T00:44:57;6.30;99.90
54832;DHT22;40730;53.068;6.572;2024-01-30T00:47:22;6.30;99.90
54832;DHT22;40730;53.068;6.572;2024-01-30T00:49:48;6.30;99.90
54832;DHT22;40730;53.068;6.572;2024-01-30T00:52:13;6.30;99.90
54832;DHT22;40730;53.068;6.572;2024-01-30T00:54:39;6.30;99.90
54832;DHT22;40730;53.068;6.572;2024-01-30T00:57:05;6.20;99.90
54832;DHT22;40730;53.068;6.572;2024-01-30T00:59:30;6.20;99.90
54832;DHT22;40730;53.068;6.572;2024-01-30T01:01:56;6.40;99.90
54832;DHT22;40730;53.068;6.572;2024-01-30T01:04:21;6.30;99.90
54832;DHT22;40730;53.068;6.572;2024-01-30T01:06:47;6.30;99.90
54832;DHT22;40730;53.068;6.572;2024-01-30T01:09:13;6.30;99.90
54832;DHT22;40730;53.068;6.572;2024-01-30T01:11:39;6.30;99.90
54832;DHT22;40730;53.068;6.572;2024-01-30T01:14:05;6.30;99.90
54832;DHT22;40730;53.068;6.572;2024-01-30T01:16:30;6.30;99.90
54832;DHT22;40730;53.068;6.572;2024-01-30T01:18:56;6.30;99.90
54832;DHT22;40730;53.068;6.572;2024-01-30T01:21:22;6.20;99.90
54832;DHT22;40730;53.068;6.572;2024-01-30T01:23:48;6.30;99.90
54832;DHT22;40730;53.068;6.572;2024-01-30T01:26:14;6.30;99.90
54832;DHT22;40730;53.068;6.572;2024-01-30T01:28:40;6.30;99.90
54832;DHT22;40730;53.068;6.572;2024-01-30T01:31:06;6.30;99.90
54832;DHT22;40730;53.068;6.572;2024-01-30T01:33:32;6.30;99.90
54832;DHT22;40730;53.068;6.572;2024-01-30T01:35:59;6.20;99.90
54832;DHT22;40730;53.068;6.572;2024-01-30T01:38:24;6.20;99.90
54832;DHT22;40730;53.068;6.572;2024-01-30T01:40:50;6.20;99.90
54832;DHT22;40730;53.068;6.572;2024-01-30T01:43:16;6.20;99.90
54832;DHT22;40730;53.068;6.572;2024-01-30T01:45:42;6.20;99.90
54832;DHT22;40730;53.068;6.572;2024-01-30T01:48:08;6.20;99.90
54832;DHT22;40730;53.068;6.572;2024-01-30T01:50:35;6.20;99.90
54832;DHT22;40730;53.068;6.572;2024-01-30T01:53:02;6.20;99.90
54832;DHT22;40730;53.068;6.572;2024-01-30T01:55:29;6.20;99.90
54832;DHT22;40730;53.068;6.572;2024-01-30T01:57:56;6.20;99.90
54832;DHT22;40730;53.068;6.572;2024-01-30T02:00:22;6.20;99.90
54832;DHT22;40730;53.068;6.572;2024-01-30T02:02:49;6.20;99.90
54832;DHT22;40730;53.068;6.572;2024-01-30T02:05:16;6.20;99.90
54832;DHT22;40730;53.068;6.572;2024-01-30T02:07:42;6.20;99.90
54832;DHT22;40730;53.068;6.572;2024-01-30T02:10:09;6.20;99.90
54832;DHT22;40730;53.068;6.572;2024-01-30T02:12:37;6.20;99.90
54832;DHT22;40730;53.068;6.572;2024-01-30T02:15:03;6.20;99.90
54832;DHT22;40730;53.068;6.572;2024-01-30T02:17:30;6.10;99.90
54832;DHT22;40730;53.068;6.572;2024-01-30T02:19:56;6.20;99.90
54832;DHT22;40730;53.068;6.572;2024-01-30T02:22:22;6.20;99.90
54832;DHT22;40730;53.068;6.572;2024-01-30T02:24:49;6.20;99.90
54832;DHT22;40730;53.068;6.572;2024-01-30T02:27:15;6.20;99.90
54832;DHT22;40730;53.068;6.572;2024-01-30T02:29:40;6.30;99.90
54832;DHT22;40730;53.068;6.572;2024-01-30T02:32:06;6.30;99.90
54832;DHT22;40730;53.068;6.572;2024-01-30T02:34:33;6.30;99.90
54832;DHT22;40730;53.068;6.572;2024-01-30T02:36:58;6.30;99.90
54832;DHT22;40730;53.068;6.572;2024-01-30T02:39:24;6.30;99.90
54832;DHT22;40730;53.068;6.572;2024-01-30T02:41:50;6.40;99.90
54832;DHT22;40730;53.068;6.572;2024-01-30T02:44:16;6.40;99.90
54832;DHT22;40730;53.068;6.572;2024-01-30T02:46:41;6.40;99.90
54832;DHT22;40730;53.068;6.572;2024-01-30T02:49:07;6.30;99.90
54832;DHT22;40730;53.068;6.572;2024-01-30T02:51:33;6.40;99.90
54832;DHT22;40730;53.068;6.572;2024-01-30T02:53:59;6.40;99.90
54832;DHT22;40730;53.068;6.572;2024-01-30T02:56:24;6.40;99.90
54832;DHT22;40730;53.068;6.572;2024-01-30T02:58:50;6.40;99.90
54832;DHT22;40730;53.068;6.572;2024-01-30T03:01:16;6.40;99.90
54832;DHT22;40730;53.068;6.572;2024-01-30T03:03:41;6.40;99.90
54832;DHT22;40730;53.068;6.572;2024-01-30T03:06:08;6.40;99.90
54832;DHT22;40730;53.068;6.572;2024-01-30T03:08:34;6.40;99.90
54832;DHT22;40730;53.068;6.572;2024-01-30T03:11:00;6.40;99.90
54832;DHT22;40730;53.068;6.572;2024-01-30T03:13:26;6.40;99.90
54832;DHT22;40730;53.068;6.572;2024-01-30T03:15:52;6.50;99.90
54832;DHT22;40730;53.068;6.572;2024-01-30T03:18:18;6.50;99.90
54832;DHT22;40730;53.068;6.572;2024-01-30T03:20:43;6.50;99.90
54832;DHT22;40730;53.068;6.572;2024-01-30T03:23:09;6.50;99.90
54832;DHT22;40730;53.068;6.572;2024-01-30T03:25:34;6.50;99.90
54832;DHT22;40730;53.068;6.572;2024-01-30T03:28:00;6.50;99.90
54832;DHT22;40730;53.068;6.572;2024-01-30T03:30:25;6.50;99.90
54832;DHT22;40730;53.068;6.572;2024-01-30T03:32:51;6.60;99.90
54832;DHT22;40730;53.068;6.572;2024-01-30T03:35:18;6.60;99.90
54832;DHT22;40730;53.068;6.572;2024-01-30T03:37:43;6.50;99.90
54832;DHT22;40730;53.068;6.572;2024-01-30T03:40:09;6.60;99.90
54832;DHT22;40730;53.068;6.572;2024-01-30T03:42:35;6.50;99.90
54832;DHT22;40730;53.068;6.572;2024-01-30T03:45:01;6.50;99.90
54832;DHT22;40730;53.068;6.572;2024-01-30T03:47:27;6.50;99.90
54832;DHT22;40730;53.068;6.572;2024-01-30T03:49:53;6.60;99.90
54832;DHT22;40730;53.068;6.572;2024-01-30T03:52:19;6.60;99.90
54832;DHT22;40730;53.068;6.572;2024-01-30T03:54:44;6.60;99.90
54832;DHT22;40730;53.068;6.572;2024-01-30T03:57:10;6.60;99.90
54832;DHT22;40730;53.068;6.572;2024-01-30T03:59:36;6.70;99.90
54832;DHT22;40730;53.068;6.572;2024-01-30T04:02:01;6.70;99.90
54832;DHT22;40730;53.068;6.572;2024-01-30T04:04:27;6.70;99.90
54832;DHT22;40730;53.068;6.572;2024-01-30T04:06:53;6.70;99.90
54832;DHT22;40730;53.068;6.572;2024-01-30T04:09:18;6.70;99.90
54832;DHT22;40730;53.068;6.572;2024-01-30T04:11:44;6.70;99.90
54832;DHT22;40730;53.068;6.572;2024-01-30T04:14:10;6.70;99.90
54832;DHT22;40730;53.068;6.572;2024-01-30T04:16:35;6.70;99.90
54832;DHT22;40730;53.068;6.572;2024-01-30T04:19:01;6.80;99.90
54832;DHT22;40730;53.068;6.572;2024-01-30T04:21:27;6.90;99.90
54832;DHT22;40730;53.068;6.572;2024-01-30T04:23:53;7.00;99.90
54832;DHT22;40730;53.068;6.572;2024-01-30T04:26:18;7.00;99.90
54832;DHT22;40730;53.068;6.572;2024-01-30T04:28:45;7.10;99.90
54832;DHT22;40730;53.068;6.572;2024-01-30T04:31:11;7.10;99.90
54832;DHT22;40730;53.068;6.572;2024-01-30T04:33:36;7.10;99.90
54832;DHT22;40730;53.068;6.572;2024-01-30T04:36:02;7.10;99.90
54832;DHT22;40730;53.068;6.572;2024-01-30T04:38:28;7.20;99.90
54832;DHT22;40730;53.068;6.572;2024-01-30T04:40:54;7.20;99.90
54832;DHT22;40730;53.068;6.572;2024-01-30T04:43:19;7.00;99.90
54832;DHT22;40730;53.068;6.572;2024-01-30T04:45:45;7.20;99.90
54832;DHT22;40730;53.068;6.572;2024-01-30T04:48:11;7.20;99.90
54832;DHT22;40730;53.068;6.572;2024-01-30T04:50:36;7.20;99.90
54832;DHT22;40730;53.068;6.572;2024-01-30T04:53:02;7.20;99.90
54832;DHT22;40730;53.068;6.572;2024-01-30T04:55:27;7.20;99.90
54832;DHT22;40730;53.068;6.572;2024-01-30T04:57:53;7.20;99.90
54832;DHT22;40730;53.068;6.572;2024-01-30T05:00:19;7.20;99.90
54832;DHT22;40730;53.068;6.572;2024-01-30T05:02:44;7.20;99.90
54832;DHT22;40730;53.068;6.572;2024-01-30T05:05:10;7.20;99.90
54832;DHT22;40730;53.068;6.572;2024-01-30T05:07:36;7.20;99.90
54832;DHT22;40730;53.068;6.572;2024-01-30T05:10:02;7.20;99.90
54832;DHT22;40730;53.068;6.572;2024-01-30T05:12:28;7.20;99.90
54832;DHT22;40730;53.068;6.572;2024-01-30T05:14:56;7.20;99.90
54832;DHT22;40730;53.068;6.572;2024-01-30T05:17:22;7.20;99.90
54832;DHT22;40730;53.068;6.572;2024-01-30T05:19:48;7.20;99.90
54832;DHT22;40730;53.068;6.572;2024-01-30T05:22:13;7.20;99.90
54832;DHT22;40730;53.068;6.572;2024-01-30T05:24:41;7.20;99.90
54832;DHT22;40730;53.068;6.572;2024-01-30T05:27:08;7.20;99.90
54832;DHT22;40730;53.068;6.572;2024-01-30T05:29:33;7.20;99.90
54832;DHT22;40730;53.068;6.572;2024-01-30T05:31:59;7.30;99.90
54832;DHT22;40730;53.068;6.572;2024-01-30T05:34:25;7.20;99.90
54832;DHT22;40730;53.068;6.572;2024-01-30T05:36:50;7.20;99.90
54832;DHT22;40730;53.068;6.572;2024-01-30T05:39:16;7.20;99.90
54832;DHT22;40730;53.068;6.572;2024-01-30T05:41:41;7.20;99.90
54832;DHT22;40730;53.068;6.572;2024-01-30T05:44:07;7.30;99.90
54832;DHT22;40730;53.068;6.572;2024-01-30T05:46:33;7.20;99.90
54832;DHT22;40730;53.068;6.572;2024-01-30T05:48:59;7.20;99.90
54832;DHT22;40730;53.068;6.572;2024-01-30T05:51:24;7.30;99.90
54832;DHT22;40730;53.068;6.572;2024-01-30T05:53:50;7.30;99.90
54832;DHT22;40730;53.068;6.572;2024-01-30T05:56:16;7.60;99.90
54832;DHT22;40730;53.068;6.572;2024-01-30T05:58:41;7.30;99.90
54832;DHT22;40730;53.068;6.572;2024-01-30T06:01:08;7.40;99.90
54832;DHT22;40730;53.068;6.572;2024-01-30T06:03:34;7.40;99.90
54832;DHT22;40730;53.068;6.572;2024-01-30T06:06:00;7.40;99.90
54832;DHT22;40730;53.068;6.572;2024-01-30T06:08:26;7.40;99.90
54832;DHT22;40730;53.068;6.572;2024-01-30T06:10:51;7.40;99.90
54832;DHT22;40730;53.068;6.572;2024-01-30T06:13:17;7.40;99.90
54832;DHT22;40730;53.068;6.572;2024-01-30T06:15:43;7.40;99.90
54832;DHT22;40730;53.068;6.572;2024-01-30T06:18:08;7.50;99.90
54832;DHT22;40730;53.068;6.572;2024-01-30T06:20:34;7.50;99.90
54832;DHT22;40730;53.068;6.572;2024-01-30T06:23:00;7.50;99.90
54832;DHT22;40730;53.068;6.572;2024-01-30T06:25:26;7.50;99.90
54832;DHT22;40730;53.068;6.572;2024-01-30T06:27:51;7.50;99.90
54832;DHT22;40730;53.068;6.572;2024-01-30T06:30:18;7.60;99.90
54832;DHT22;40730;53.068;6.572;2024-01-30T06:32:43;7.60;99.90
54832;DHT22;40730;53.068;6.572;2024-01-30T06:35:09;7.80;99.90
54832;DHT22;40730;53.068;6.572;2024-01-30T06:37:36;7.60;99.90
54832;DHT22;40730;53.068;6.572;2024-01-30T06:40:02;7.60;99.90
54832;DHT22;40730;53.068;6.572;2024-01-30T06:42:30;7.70;99.90
54832;DHT22;40730;53.068;6.572;2024-01-30T06:44:55;7.70;99.90
54832;DHT22;40730;53.068;6.572;2024-01-30T06:47:21;7.70;99.90
54832;DHT22;40730;53.068;6.572;2024-01-30T06:49:46;7.70;99.90
54832;DHT22;40730;53.068;6.572;2024-01-30T06:52:12;7.70;99.90
54832;DHT22;40730;53.068;6.572;2024-01-30T06:54:38;7.70;99.90
54832;DHT22;40730;53.068;6.572;2024-01-30T06:57:03;7.70;99.90
54832;DHT22;40730;53.068;6.572;2024-01-30T06:59:29;7.70;99.90
54832;DHT22;40730;53.068;6.572;2024-01-30T07:01:55;7.80;99.90
54832;DHT22;40730;53.068;6.572;2024-01-30T07:04:20;7.80;99.90
54832;DHT22;40730;53.068;6.572;2024-01-30T07:06:46;7.80;99.90
54832;DHT22;40730;53.068;6.572;2024-01-30T07:09:12;7.80;99.90
54832;DHT22;40730;53.068;6.572;2024-01-30T07:11:39;7.80;99.90
54832;DHT22;40730;53.068;6.572;2024-01-30T07:14:04;7.80;99.90
54832;DHT22;40730;53.068;6.572;2024-01-30T07:16:30;7.80;99.90
54832;DHT22;40730;53.068;6.572;2024-01-30T07:18:55;7.80;99.90
54832;DHT22;40730;53.068;6.572;2024-01-30T07:21:22;7.90;99.90
54832;DHT22;40730;53.068;6.572;2024-01-30T07:23:55;7.80;99.90
54832;DHT22;40730;53.068;6.572;2024-01-30T07:26:21;7.80;99.90
54832;DHT22;40730;53.068;6.572;2024-01-30T07:28:47;7.90;99.90
54832;DHT22;40730;53.068;6.572;2024-01-30T07:31:12;7.80;99.90
54832;DHT22;40730;53.068;6.572;2024-01-30T07:33:38;7.80;99.90
54832;DHT22;40730;53.068;6.572;2024-01-30T07:36:04;7.80;99.90
54832;DHT22;40730;53.068;6.572;2024-01-30T07:38:32;7.80;99.90
54832;DHT22;40730;53.068;6.572;2024-01-30T07:40:57;7.80;99.90
54832;DHT22;40730;53.068;6.572;2024-01-30T07:43:23;7.80;99.90
54832;DHT22;40730;53.068;6.572;2024-01-30T07:45:49;7.80;99.90
54832;DHT22;40730;53.068;6.572;2024-01-30T07:48:14;7.80;99.90
54832;DHT22;40730;53.068;6.572;2024-01-30T07:50:40;7.80;99.90
54832;DHT22;40730;53.068;6.572;2024-01-30T07:53:05;7.90;99.90
54832;DHT22;40730;53.068;6.572;2024-01-30T07:55:31;7.90;99.90
54832;DHT22;40730;53.068;6.572;2024-01-30T07:57:58;7.90;99.90
54832;DHT22;40730;53.068;6.572;2024-01-30T08:00:26;7.90;99.90
54832;DHT22;40730;53.068;6.572;2024-01-30T08:02:54;7.90;99.90
54832;DHT22;40730;53.068;6.572;2024-01-30T08:05:21;8.00;99.90
54832;DHT22;40730;53.068;6.572;2024-01-30T08:07:48;8.00;99.90
54832;DHT22;40730;53.068;6.572;2024-01-30T08:10:14;8.10;99.90
54832;DHT22;40730;53.068;6.572;2024-01-30T08:12:41;8.10;99.90
54832;DHT22;40730;53.068;6.572;2024-01-30T08:15:07;8.10;99.90
54832;DHT22;40730;53.068;6.572;2024-01-30T08:17:33;8.20;99.90
54832;DHT22;40730;53.068;6.572;2024-01-30T08:19:59;8.20;99.90
54832;DHT22;40730;53.068;6.572;2024-01-30T08:22:24;8.20;99.90
54832;DHT22;40730;53.068;6.572;2024-01-30T08:24:50;8.30;99.90
54832;DHT22;40730;53.068;6.572;2024-01-30T08:27:16;8.30;99.90
54832;DHT22;40730;53.068;6.572;2024-01-30T08:29:42;8.30;99.90
54832;DHT22;40730;53.068;6.572;2024-01-30T08:32:07;8.30;99.90
54832;DHT22;40730;53.068;6.572;2024-01-30T08:34:33;8.40;99.90
54832;DHT22;40730;53.068;6.572;2024-01-30T08:36:59;8.40;99.90
54832;DHT22;40730;53.068;6.572;2024-01-30T08:39:25;8.50;99.90
54832;DHT22;40730;53.068;6.572;2024-01-30T08:41:50;8.50;99.90
54832;DHT22;40730;53.068;6.572;2024-01-30T08:44:16;8.50;99.90
54832;DHT22;40730;53.068;6.572;2024-01-30T08:46:44;8.60;99.90
54832;DHT22;40730;53.068;6.572;2024-01-30T08:49:11;8.60;99.90
54832;DHT22;40730;53.068;6.572;2024-01-30T08:51:41;8.60;99.90
54832;DHT22;40730;53.068;6.572;2024-01-30T08:54:06;8.60;99.90
54832;DHT22;40730;53.068;6.572;2024-01-30T08:56:32;8.70;99.90
54832;DHT22;40730;53.068;6.572;2024-01-30T08:58:58;8.70;99.90
54832;DHT22;40730;53.068;6.572;2024-01-30T09:01:25;8.70;99.90
54832;DHT22;40730;53.068;6.572;2024-01-30T09:03:50;8.70;99.90
54832;DHT22;40730;53.068;6.572;2024-01-30T09:06:16;8.70;99.90
54832;DHT22;40730;53.068;6.572;2024-01-30T09:08:42;8.80;99.90
54832;DHT22;40730;53.068;6.572;2024-01-30T09:11:12;8.80;99.90
54832;DHT22;40730;53.068;6.572;2024-01-30T09:13:38;8.80;99.90
54832;DHT22;40730;53.068;6.572;2024-01-30T09:16:04;8.80;99.90
54832;DHT22;40730;53.068;6.572;2024-01-30T09:18:30;8.90;99.90
54832;DHT22;40730;53.068;6.572;2024-01-30T09:20:55;8.90;99.90
54832;DHT22;40730;53.068;6.572;2024-01-30T09:23:21;8.80;99.90
54832;DHT22;40730;53.068;6.572;2024-01-30T09:25:47;8.90;99.90
54832;DHT22;40730;53.068;6.572;2024-01-30T09:28:13;8.90;99.90
54832;DHT22;40730;53.068;6.572;2024-01-30T09:30:38;8.90;99.90
54832;DHT22;40730;53.068;6.572;2024-01-30T09:33:04;9.00;99.90
54832;DHT22;40730;53.068;6.572;2024-01-30T09:35:30;9.00;99.90
54832;DHT22;40730;53.068;6.572;2024-01-30T09:37:55;9.10;99.90
54832;DHT22;40730;53.068;6.572;2024-01-30T09:40:22;9.20;99.90
54832;DHT22;40730;53.068;6.572;2024-01-30T09:42:50;9.20;99.90
54832;DHT22;40730;53.068;6.572;2024-01-30T09:45:18;9.30;99.90
54832;DHT22;40730;53.068;6.572;2024-01-30T09:47:45;9.40;99.90
54832;DHT22;40730;53.068;6.572;2024-01-30T09:50:12;9.40;99.90
54832;DHT22;40730;53.068;6.572;2024-01-30T09:52:39;9.50;99.90
54832;DHT22;40730;53.068;6.572;2024-01-30T09:55:06;9.60;99.90
54832;DHT22;40730;53.068;6.572;2024-01-30T09:57:32;9.70;99.90
54832;DHT22;40730;53.068;6.572;2024-01-30T09:59:58;9.70;99.90
54832;DHT22;40730;53.068;6.572;2024-01-30T10:02:24;9.80;99.90
54832;DHT22;40730;53.068;6.572;2024-01-30T10:04:50;9.80;99.90
54832;DHT22;40730;53.068;6.572;2024-01-30T10:07:20;9.90;99.90
54832;DHT22;40730;53.068;6.572;2024-01-30T10:09:46;9.90;99.90
54832;DHT22;40730;53.068;6.572;2024-01-30T10:12:12;9.90;99.90
54832;DHT22;40730;53.068;6.572;2024-01-30T10:14:39;9.90;99.90
54832;DHT22;40730;53.068;6.572;2024-01-30T10:17:05;9.90;99.90
54832;DHT22;40730;53.068;6.572;2024-01-30T10:19:31;10.00;99.90
54832;DHT22;40730;53.068;6.572;2024-01-30T10:21:57;10.00;99.90
54832;DHT22;40730;53.068;6.572;2024-01-30T10:24:26;10.00;99.90
54832;DHT22;40730;53.068;6.572;2024-01-30T10:26:53;10.00;99.90
54832;DHT22;40730;53.068;6.572;2024-01-30T10:29:19;10.10;99.90
54832;DHT22;40730;53.068;6.572;2024-01-30T10:31:44;10.10;99.90
54832;DHT22;40730;53.068;6.572;2024-01-30T10:34:10;10.20;99.90
54832;DHT22;40730;53.068;6.572;2024-01-30T10:36:40;10.20;99.90
54832;DHT22;40730;53.068;6.572;2024-01-30T10:39:09;10.30;99.90
54832;DHT22;40730;53.068;6.572;2024-01-30T10:41:44;10.30;99.90
54832;DHT22;40730;53.068;6.572;2024-01-30T10:44:10;10.30;99.90
54832;DHT22;40730;53.068;6.572;2024-01-30T10:46:38;10.40;99.90
54832;DHT22;40730;53.068;6.572;2024-01-30T10:49:04;10.30;99.90
54832;DHT22;40730;53.068;6.572;2024-01-30T10:51:31;10.30;99.90
54832;DHT22;40730;53.068;6.572;2024-01-30T10:53:57;10.30;99.90
54832;DHT22;40730;53.068;6.572;2024-01-30T10:56:24;10.30;99.90
54832;DHT22;40730;53.068;6.572;2024-01-30T10:58:51;10.30;99.90
54832;DHT22;40730;53.068;6.572;2024-01-30T11:01:23;10.40;99.90
54832;DHT22;40730;53.068;6.572;2024-01-30T11:03:53;10.30;99.90
54832;DHT22;40730;53.068;6.572;2024-01-30T11:06:24;10.40;99.90
54832;DHT22;40730;53.068;6.572;2024-01-30T11:09:04;10.40;99.90
54832;DHT22;40730;53.068;6.572;2024-01-30T11:12:11;10.40;99.90
54832;DHT22;40730;53.068;6.572;2024-01-30T11:14:33;10.50;99.90
54832;DHT22;40730;53.068;6.572;2024-01-30T11:16:59;10.50;99.90
54832;DHT22;40730;53.068;6.572;2024-01-30T11:19:26;10.50;99.90
54832;DHT22;40730;53.068;6.572;2024-01-30T11:21:55;10.50;99.90
54832;DHT22;40730;53.068;6.572;2024-01-30T11:24:23;10.50;99.90
54832;DHT22;40730;53.068;6.572;2024-01-30T11:26:49;10.50;99.90
54832;DHT22;40730;53.068;6.572;2024-01-30T11:29:19;10.50;99.90
54832;DHT22;40730;53.068;6.572;2024-01-30T11:31:54;10.50;99.90
54832;DHT22;40730;53.068;6.572;2024-01-30T11:34:20;10.60;99.90
54832;DHT22;40730;53.068;6.572;2024-01-30T11:37:03;10.50;99.90
54832;DHT22;40730;53.068;6.572;2024-01-30T11:39:32;10.50;99.90
54832;DHT22;40730;53.068;6.572;2024-01-30T11:41:59;10.50;99.90
54832;DHT22;40730;53.068;6.572;2024-01-30T11:44:25;10.50;99.90
54832;DHT22;40730;53.068;6.572;2024-01-30T11:46:51;10.50;99.90
54832;DHT22;40730;53.068;6.572;2024-01-30T11:49:17;10.50;99.90
54832;DHT22;40730;53.068;6.572;2024-01-30T11:51:46;10.60;99.90
54832;DHT22;40730;53.068;6.572;2024-01-30T11:54:15;10.40;99.90
54832;DHT22;40730;53.068;6.572;2024-01-30T11:56:42;10.30;99.90
54832;DHT22;40730;53.068;6.572;2024-01-30T11:59:08;10.20;99.90
54832;DHT22;40730;53.068;6.572;2024-01-30T12:01:34;10.10;99.90
54832;DHT22;40730;53.068;6.572;2024-01-30T12:04:00;10.00;99.90
54832;DHT22;40730;53.068;6.572;2024-01-30T12:06:26;9.90;99.90
54832;DHT22;40730;53.068;6.572;2024-01-30T12:08:57;9.90;99.90
54832;DHT22;40730;53.068;6.572;2024-01-30T12:11:23;9.80;99.90
54832;DHT22;40730;53.068;6.572;2024-01-30T12:13:50;9.80;99.90
54832;DHT22;40730;53.068;6.572;2024-01-30T12:16:16;9.70;99.90
54832;DHT22;40730;53.068;6.572;2024-01-30T12:18:42;9.70;99.90
54832;DHT22;40730;53.068;6.572;2024-01-30T12:21:07;9.70;99.90
54832;DHT22;40730;53.068;6.572;2024-01-30T12:23:35;9.70;99.90
54832;DHT22;40730;53.068;6.572;2024-01-30T12:26:01;9.70;99.90
54832;DHT22;40730;53.068;6.572;2024-01-30T12:28:29;9.80;99.90
54832;DHT22;40730;53.068;6.572;2024-01-30T12:31:01;9.80;99.90
54832;DHT22;40730;53.068;6.572;2024-01-30T12:33:29;10.00;99.90
54832;DHT22;40730;53.068;6.572;2024-01-30T12:35:55;10.10;99.90
54832;DHT22;40730;53.068;6.572;2024-01-30T12:38:21;10.10;99.90
54832;DHT22;40730;53.068;6.572;2024-01-30T12:40:46;10.10;99.90
54832;DHT22;40730;53.068;6.572;2024-01-30T12:43:13;10.10;99.90
54832;DHT22;40730;53.068;6.572;2024-01-30T12:45:39;10.10;99.90
54832;DHT22;40730;53.068;6.572;2024-01-30T12:48:05;10.10;99.90
54832;DHT22;40730;53.068;6.572;2024-01-30T12:50:30;10.00;99.90
54832;DHT22;40730;53.068;6.572;2024-01-30T12:52:56;10.10;99.90
54832;DHT22;40730;53.068;6.572;2024-01-30T12:55:22;10.00;99.90
54832;DHT22;40730;53.068;6.572;2024-01-30T12:57:47;10.00;99.90
54832;DHT22;40730;53.068;6.572;2024-01-30T13:00:13;9.90;99.90
54832;DHT22;40730;53.068;6.572;2024-01-30T13:02:39;9.90;99.90
54832;DHT22;40730;53.068;6.572;2024-01-30T13:05:05;9.90;99.90
54832;DHT22;40730;53.068;6.572;2024-01-30T13:07:31;9.80;99.90
54832;DHT22;40730;53.068;6.572;2024-01-30T13:09:57;9.80;99.90
54832;DHT22;40730;53.068;6.572;2024-01-30T13:12:30;9.80;99.90
54832;DHT22;40730;53.068;6.572;2024-01-30T13:14:55;9.80;99.90
54832;DHT22;40730;53.068;6.572;2024-01-30T13:17:21;9.80;99.90
54832;DHT22;40730;53.068;6.572;2024-01-30T13:19:46;10.20;99.90
54832;DHT22;40730;53.068;6.572;2024-01-30T13:22:14;10.20;99.90
54832;DHT22;40730;53.068;6.572;2024-01-30T13:24:40;10.30;99.90
54832;DHT22;40730;53.068;6.572;2024-01-30T13:27:07;10.30;99.90
54832;DHT22;40730;53.068;6.572;2024-01-30T13:29:32;10.30;99.90
54832;DHT22;40730;53.068;6.572;2024-01-30T13:31:58;10.30;99.90
54832;DHT22;40730;53.068;6.572;2024-01-30T13:34:24;10.30;99.90
54832;DHT22;40730;53.068;6.572;2024-01-30T13:36:50;10.40;99.90
54832;DHT22;40730;53.068;6.572;2024-01-30T13:39:16;10.30;99.90
54832;DHT22;40730;53.068;6.572;2024-01-30T13:41:42;10.30;99.90
54832;DHT22;40730;53.068;6.572;2024-01-30T13:44:08;10.20;99.90
54832;DHT22;40730;53.068;6.572;2024-01-30T13:46:35;10.10;99.90
54832;DHT22;40730;53.068;6.572;2024-01-30T13:49:01;10.10;99.90
54832;DHT22;40730;53.068;6.572;2024-01-30T13:51:27;10.00;99.90
54832;DHT22;40730;53.068;6.572;2024-01-30T13:53:53;9.90;99.90
54832;DHT22;40730;53.068;6.572;2024-01-30T13:56:19;9.90;99.90
54832;DHT22;40730;53.068;6.572;2024-01-30T13:58:47;9.90;99.90
54832;DHT22;40730;53.068;6.572;2024-01-30T14:01:13;9.80;99.90
54832;DHT22;40730;53.068;6.572;2024-01-30T14:03:39;9.80;99.90
54832;DHT22;40730;53.068;6.572;2024-01-30T14:06:05;9.70;99.90
54832;DHT22;40730;53.068;6.572;2024-01-30T14:08:31;9.70;99.90
54832;DHT22;40730;53.068;6.572;2024-01-30T14:10:56;9.70;99.90
54832;DHT22;40730;53.068;6.572;2024-01-30T14:13:22;9.70;99.90
54832;DHT22;40730;53.068;6.572;2024-01-30T14:15:48;9.60;99.90
54832;DHT22;40730;53.068;6.572;2024-01-30T14:18:15;9.60;99.90
54832;DHT22;40730;53.068;6.572;2024-01-30T14:20:41;9.50;99.90
54832;DHT22;40730;53.068;6.572;2024-01-30T14:23:06;9.50;99.90
54832;DHT22;40730;53.068;6.572;2024-01-30T14:25:32;9.60;99.90
54832;DHT22;40730;53.068;6.572;2024-01-30T14:27:58;9.50;99.90
54832;DHT22;40730;53.068;6.572;2024-01-30T14:30:23;9.40;99.90
54832;DHT22;40730;53.068;6.572;2024-01-30T14:32:49;9.40;99.90
54832;DHT22;40730;53.068;6.572;2024-01-30T14:35:15;9.30;99.90
54832;DHT22;40730;53.068;6.572;2024-01-30T14:37:41;9.30;99.90
54832;DHT22;40730;53.068;6.572;2024-01-30T14:40:07;9.30;99.90
54832;DHT22;40730;53.068;6.572;2024-01-30T14:42:33;9.20;99.90
54832;DHT22;40730;53.068;6.572;2024-01-30T14:44:59;9.20;99.90
54832;DHT22;40730;53.068;6.572;2024-01-30T14:47:25;9.10;99.90
54832;DHT22;40730;53.068;6.572;2024-01-30T14:49:51;9.00;99.90
54832;DHT22;40730;53.068;6.572;2024-01-30T14:52:17;8.90;99.90
54832;DHT22;40730;53.068;6.572;2024-01-30T14:54:43;8.90;99.90
54832;DHT22;40730;53.068;6.572;2024-01-30T14:57:09;8.80;99.90
54832;DHT22;40730;53.068;6.572;2024-01-30T14:59:36;8.80;99.90
54832;DHT22;40730;53.068;6.572;2024-01-30T15:02:02;8.70;99.90
54832;DHT22;40730;53.068;6.572;2024-01-30T15:04:27;8.70;99.90
54832;DHT22;40730;53.068;6.572;2024-01-30T15:06:53;8.70;99.90
54832;DHT22;40730;53.068;6.572;2024-01-30T15:09:19;8.60;99.90
54832;DHT22;40730;53.068;6.572;2024-01-30T15:11:46;8.60;99.90
54832;DHT22;40730;53.068;6.572;2024-01-30T15:14:12;8.50;99.90
54832;DHT22;40730;53.068;6.572;2024-01-30T15:16:38;8.50;99.90
54832;DHT22;40730;53.068;6.572;2024-01-30T15:19:04;8.50;99.90
54832;DHT22;40730;53.068;6.572;2024-01-30T15:21:32;8.40;99.90
54832;DHT22;40730;53.068;6.572;2024-01-30T15:23:58;8.50;99.90
54832;DHT22;40730;53.068;6.572;2024-01-30T15:26:24;8.40;99.90
54832;DHT22;40730;53.068;6.572;2024-01-30T15:28:50;8.40;99.90
54832;DHT22;40730;53.068;6.572;2024-01-30T15:31:16;8.40;99.90
54832;DHT22;40730;53.068;6.572;2024-01-30T15:33:41;8.20;99.90
54832;DHT22;40730;53.068;6.572;2024-01-30T15:36:08;8.40;99.90